sensor_id;sensor_type;location;lat;lon;timestamp;temperature;humidity
42715;DHT22;28351;51.480;5.706;2023-08-21T00:00:45;20.10;99.90
42715;DHT22;28351;51.480;5.706;2023-08-21T00:03:10;20.10;99.90
42715;DHT22;28351;51.480;5.706;2023-08-21T00:05:36;20.10;99.90
42715;DHT22;28351;51.480;5.706;2023-08-21T00:08:02;20.10;99.90
42715;DHT22;28351;51.480;5.706;2023-08-21T00:10:29;20.10;99.90
42715;DHT22;28351;51.480;5.706;2023-08-21T00:12:55;20.10;99.90
42715;DHT22;28351;51.480;5.706;2023-08-21T00:15:20;20.10;99.90
42715;DHT22;28351;51.480;5.706;2023-08-21T00:17:46;20.10;99.90
42715;DHT22;28351;51.480;5.706;2023-08-21T00:20:12;20.00;99.90
42715;DHT22;28351;51.480;5.706;2023-08-21T00:22:38;20.00;99.90
42715;DHT22;28351;51.480;5.706;2023-08-21T00:25:04;20.00;99.90
42715;DHT22;28351;51.480;5.706;2023-08-21T00:27:29;19.80;99.90
42715;DHT22;28351;51.480;5.706;2023-08-21T00:29:55;19.80;99.90
42715;DHT22;28351;51.480;5.706;2023-08-21T00:32:21;19.80;99.90
42715;DHT22;28351;51.480;5.706;2023-08-21T00:34:46;19.70;99.90
42715;DHT22;28351;51.480;5.706;2023-08-21T00:37:12;19.60;99.90
42715;DHT22;28351;51.480;5.706;2023-08-21T00:39:37;19.60;99.90
42715;DHT22;28351;51.480;5.706;2023-08-21T00:42:03;19.50;99.90
42715;DHT22;28351;51.480;5.706;2023-08-21T00:44:29;19.50;99.90
42715;DHT22;28351;51.480;5.706;2023-08-21T00:46:54;19.50;99.90
42715;DHT22;28351;51.480;5.706;2023-08-21T00:49:20;19.40;99.90
42715;DHT22;28351;51.480;5.706;2023-08-21T00:51:48;19.40;99.90
42715;DHT22;28351;51.480;5.706;2023-08-21T00:54:14;19.40;99.90
42715;DHT22;28351;51.480;5.706;2023-08-21T00:56:39;19.30;99.90
42715;DHT22;28351;51.480;5.706;2023-08-21T00:59:05;19.30;99.90
42715;DHT22;28351;51.480;5.706;2023-08-21T01:01:32;19.20;99.90
42715;DHT22;28351;51.480;5.706;2023-08-21T01:03:58;19.20;99.90
42715;DHT22;28351;51.480;5.706;2023-08-21T01:06:24;19.20;99.90
42715;DHT22;28351;51.480;5.706;2023-08-21T01:08:52;19.20;99.90
42715;DHT22;28351;51.480;5.706;2023-08-21T01:11:26;19.30;99.90
42715;DHT22;28351;51.480;5.706;2023-08-21T01:14:06;19.30;99.90
42715;DHT22;28351;51.480;5.706;2023-08-21T01:16:37;19.40;99.90
42715;DHT22;28351;51.480;5.706;2023-08-21T01:19:03;19.40;99.90
42715;DHT22;28351;51.480;5.706;2023-08-21T01:21:32;19.30;99.90
42715;DHT22;28351;51.480;5.706;2023-08-21T01:23:58;19.30;99.90
42715;DHT22;28351;51.480;5.706;2023-08-21T01:26:24;19.30;99.90
42715;DHT22;28351;51.480;5.706;2023-08-21T01:28:49;19.40;99.90
42715;DHT22;28351;51.480;5.706;2023-08-21T01:31:21;19.40;99.90
42715;DHT22;28351;51.480;5.706;2023-08-21T01:33:53;19.40;99.90
42715;DHT22;28351;51.480;5.706;2023-08-21T01:36:20;19.40;99.90
42715;DHT22;28351;51.480;5.706;2023-08-21T01:38:46;19.40;99.90
42715;DHT22;28351;51.480;5.706;2023-08-21T01:41:12;19.40;99.90
42715;DHT22;28351;51.480;5.706;2023-08-21T01:43:38;19.40;99.90
42715;DHT22;28351;51.480;5.706;2023-08-21T01:46:04;19.40;99.90
42715;DHT22;28351;51.480;5.706;2023-08-21T01:48:29;19.40;99.90
42715;DHT22;28351;51.480;5.706;2023-08-21T01:50:55;19.40;99.90
42715;DHT22;28351;51.480;5.706;2023-08-21T01:53:21;19.20;99.90
42715;DHT22;28351;51.480;5.706;2023-08-21T01:55:46;19.10;99.90
42715;DHT22;28351;51.480;5.706;2023-08-21T01:58:12;19.00;99.90
42715;DHT22;28351;51.480;5.706;2023-08-21T02:00:38;18.90;99.90
42715;DHT22;28351;51.480;5.706;2023-08-21T02:03:03;18.80;99.90
42715;DHT22;28351;51.480;5.706;2023-08-21T02:05:29;18.80;99.90
42715;DHT22;28351;51.480;5.706;2023-08-21T02:07:55;18.70;99.90
42715;DHT22;28351;51.480;5.706;2023-08-21T02:10:20;18.60;99.90
42715;DHT22;28351;51.480;5.706;2023-08-21T02:12:46;18.50;99.90
42715;DHT22;28351;51.480;5.706;2023-08-21T02:15:11;18.50;99.90
42715;DHT22;28351;51.480;5.706;2023-08-21T02:17:37;18.40;99.90
42715;DHT22;28351;51.480;5.706;2023-08-21T02:20:03;18.40;99.90
42715;DHT22;28351;51.480;5.706;2023-08-21T02:22:29;18.40;99.90
42715;DHT22;28351;51.480;5.706;2023-08-21T02:24:54;18.30;99.90
42715;DHT22;28351;51.480;5.706;2023-08-21T02:27:20;18.20;99.90
42715;DHT22;28351;51.480;5.706;2023-08-21T02:29:45;18.20;99.90
42715;DHT22;28351;51.480;5.706;2023-08-21T02:32:11;18.20;99.90
42715;DHT22;28351;51.480;5.706;2023-08-21T02:34:37;18.20;99.90
42715;DHT22;28351;51.480;5.706;2023-08-21T02:37:02;18.20;99.90
42715;DHT22;28351;51.480;5.706;2023-08-21T02:39:28;18.10;99.90
42715;DHT22;28351;51.480;5.706;2023-08-21T02:41:54;18.10;99.90
42715;DHT22;28351;51.480;5.706;2023-08-21T02:44:20;18.10;99.90
42715;DHT22;28351;51.480;5.706;2023-08-21T02:46:45;18.00;99.90
42715;DHT22;28351;51.480;5.706;2023-08-21T02:49:11;17.90;99.90
42715;DHT22;28351;51.480;5.706;2023-08-21T02:51:36;17.90;99.90
42715;DHT22;28351;51.480;5.706;2023-08-21T02:54:02;17.90;99.90
42715;DHT22;28351;51.480;5.706;2023-08-21T02:56:28;18.00;99.90
42715;DHT22;28351;51.480;5.706;2023-08-21T02:58:53;18.10;99.90
42715;DHT22;28351;51.480;5.706;2023-08-21T03:01:19;18.00;99.90
42715;DHT22;28351;51.480;5.706;2023-08-21T03:03:44;17.90;99.90
42715;DHT22;28351;51.480;5.706;2023-08-21T03:06:10;17.90;99.90
42715;DHT22;28351;51.480;5.706;2023-08-21T03:08:36;17.90;99.90
42715;DHT22;28351;51.480;5.706;2023-08-21T03:11:01;17.80;99.90
42715;DHT22;28351;51.480;5.706;2023-08-21T03:13:27;17.90;99.90
42715;DHT22;28351;51.480;5.706;2023-08-21T03:15:52;17.90;99.90
42715;DHT22;28351;51.480;5.706;2023-08-21T03:18:18;17.90;99.90
42715;DHT22;28351;51.480;5.706;2023-08-21T03:20:45;17.90;99.90
42715;DHT22;28351;51.480;5.706;2023-08-21T03:23:12;17.90;99.90
42715;DHT22;28351;51.480;5.706;2023-08-21T03:25:37;17.80;99.90
42715;DHT22;28351;51.480;5.706;2023-08-21T03:28:03;17.80;99.90
42715;DHT22;28351;51.480;5.706;2023-08-21T03:30:29;17.80;99.90
42715;DHT22;28351;51.480;5.706;2023-08-21T03:32:54;17.70;99.90
42715;DHT22;28351;51.480;5.706;2023-08-21T03:35:20;17.70;99.90
42715;DHT22;28351;51.480;5.706;2023-08-21T03:37:45;17.60;99.90
42715;DHT22;28351;51.480;5.706;2023-08-21T03:40:11;17.60;99.90
42715;DHT22;28351;51.480;5.706;2023-08-21T03:42:37;17.50;99.90
42715;DHT22;28351;51.480;5.706;2023-08-21T03:45:03;17.60;99.90
42715;DHT22;28351;51.480;5.706;2023-08-21T03:47:30;17.60;99.90
42715;DHT22;28351;51.480;5.706;2023-08-21T03:49:56;17.60;99.90
42715;DHT22;28351;51.480;5.706;2023-08-21T03:52:21;17.60;99.90
42715;DHT22;28351;51.480;5.706;2023-08-21T03:54:47;17.60;99.90
42715;DHT22;28351;51.480;5.706;2023-08-21T03:57:13;17.50;99.90
42715;DHT22;28351;51.480;5.706;2023-08-21T03:59:38;17.40;99.90
42715;DHT22;28351;51.480;5.706;2023-08-21T04:02:04;17.40;99.90
42715;DHT22;28351;51.480;5.706;2023-08-21T04:04:29;17.40;99.90
42715;DHT22;28351;51.480;5.706;2023-08-21T04:06:55;17.30;99.90
42715;DHT22;28351;51.480;5.706;2023-08-21T04:09:21;17.30;99.90
42715;DHT22;28351;51.480;5.706;2023-08-21T04:11:46;17.30;99.90
42715;DHT22;28351;51.480;5.706;2023-08-21T04:14:12;17.20;99.90
42715;DHT22;28351;51.480;5.706;2023-08-21T04:16:37;17.20;99.90
42715;DHT22;28351;51.480;5.706;2023-08-21T04:19:03;17.30;99.90
42715;DHT22;28351;51.480;5.706;2023-08-21T04:21:29;17.30;99.90
42715;DHT22;28351;51.480;5.706;2023-08-21T04:23:54;17.30;99.90
42715;DHT22;28351;51.480;5.706;2023-08-21T04:26:20;17.30;99.90
42715;DHT22;28351;51.480;5.706;2023-08-21T04:28:46;17.30;99.90
42715;DHT22;28351;51.480;5.706;2023-08-21T04:31:12;17.30;99.90
42715;DHT22;28351;51.480;5.706;2023-08-21T04:33:37;17.20;99.90
42715;DHT22;28351;51.480;5.706;2023-08-21T04:36:03;17.20;99.90
42715;DHT22;28351;51.480;5.706;2023-08-21T04:38:29;17.20;99.90
42715;DHT22;28351;51.480;5.706;2023-08-21T04:40:55;17.10;99.90
42715;DHT22;28351;51.480;5.706;2023-08-21T04:43:20;17.10;99.90
42715;DHT22;28351;51.480;5.706;2023-08-21T04:45:50;17.10;99.90
42715;DHT22;28351;51.480;5.706;2023-08-21T04:48:18;17.10;99.90
42715;DHT22;28351;51.480;5.706;2023-08-21T04:50:45;17.10;99.90
42715;DHT22;28351;51.480;5.706;2023-08-21T04:53:11;17.20;99.90
42715;DHT22;28351;51.480;5.706;2023-08-21T04:55:36;17.20;99.90
42715;DHT22;28351;51.480;5.706;2023-08-21T04:58:02;17.20;99.90
42715;DHT22;28351;51.480;5.706;2023-08-21T05:00:28;17.30;99.90
42715;DHT22;28351;51.480;5.706;2023-08-21T05:02:53;17.30;99.90
42715;DHT22;28351;51.480;5.706;2023-08-21T05:05:19;17.40;99.90
42715;DHT22;28351;51.480;5.706;2023-08-21T05:07:45;17.60;99.90
42715;DHT22;28351;51.480;5.706;2023-08-21T05:10:11;17.70;99.90
42715;DHT22;28351;51.480;5.706;2023-08-21T05:12:37;17.70;99.90
42715;DHT22;28351;51.480;5.706;2023-08-21T05:15:03;17.70;99.90
42715;DHT22;28351;51.480;5.706;2023-08-21T05:17:28;17.80;99.90
42715;DHT22;28351;51.480;5.706;2023-08-21T05:19:55;17.90;99.90
42715;DHT22;28351;51.480;5.706;2023-08-21T05:22:20;18.00;99.90
42715;DHT22;28351;51.480;5.706;2023-08-21T05:24:46;18.10;99.90
42715;DHT22;28351;51.480;5.706;2023-08-21T05:27:12;18.20;99.90
42715;DHT22;28351;51.480;5.706;2023-08-21T05:29:37;18.20;99.90
42715;DHT22;28351;51.480;5.706;2023-08-21T05:32:03;18.20;99.90
42715;DHT22;28351;51.480;5.706;2023-08-21T05:34:29;18.20;99.90
42715;DHT22;28351;51.480;5.706;2023-08-21T05:36:54;18.30;99.90
42715;DHT22;28351;51.480;5.706;2023-08-21T05:39:20;18.30;99.90
42715;DHT22;28351;51.480;5.706;2023-08-21T05:41:46;18.30;99.90
42715;DHT22;28351;51.480;5.706;2023-08-21T05:44:12;18.30;99.90
42715;DHT22;28351;51.480;5.706;2023-08-21T05:46:37;18.30;99.90
42715;DHT22;28351;51.480;5.706;2023-08-21T05:49:05;18.40;99.90
42715;DHT22;28351;51.480;5.706;2023-08-21T05:51:31;18.40;99.90
42715;DHT22;28351;51.480;5.706;2023-08-21T05:53:57;18.40;99.90
42715;DHT22;28351;51.480;5.706;2023-08-21T05:56:22;18.40;99.90
42715;DHT22;28351;51.480;5.706;2023-08-21T05:58:49;18.50;99.90
42715;DHT22;28351;51.480;5.706;2023-08-21T06:01:14;18.50;99.90
42715;DHT22;28351;51.480;5.706;2023-08-21T06:03:40;18.50;99.90
42715;DHT22;28351;51.480;5.706;2023-08-21T06:06:06;18.50;99.90
42715;DHT22;28351;51.480;5.706;2023-08-21T06:08:31;18.50;99.90
42715;DHT22;28351;51.480;5.706;2023-08-21T06:10:57;18.50;99.90
42715;DHT22;28351;51.480;5.706;2023-08-21T06:13:23;18.60;99.90
42715;DHT22;28351;51.480;5.706;2023-08-21T06:15:48;18.70;99.90
42715;DHT22;28351;51.480;5.706;2023-08-21T06:18:14;18.80;99.90
42715;DHT22;28351;51.480;5.706;2023-08-21T06:20:43;18.90;99.90
42715;DHT22;28351;51.480;5.706;2023-08-21T06:23:09;19.10;99.90
42715;DHT22;28351;51.480;5.706;2023-08-21T06:25:36;19.20;99.90
42715;DHT22;28351;51.480;5.706;2023-08-21T06:28:01;19.40;99.90
42715;DHT22;28351;51.480;5.706;2023-08-21T06:30:27;19.60;99.90
42715;DHT22;28351;51.480;5.706;2023-08-21T06:32:54;19.90;99.90
42715;DHT22;28351;51.480;5.706;2023-08-21T06:35:19;20.10;99.90
42715;DHT22;28351;51.480;5.706;2023-08-21T06:37:45;20.30;99.90
42715;DHT22;28351;51.480;5.706;2023-08-21T06:40:11;20.40;99.90
42715;DHT22;28351;51.480;5.706;2023-08-21T06:42:36;20.50;99.90
42715;DHT22;28351;51.480;5.706;2023-08-21T06:45:04;20.50;99.90
42715;DHT22;28351;51.480;5.706;2023-08-21T06:47:30;20.60;99.90
42715;DHT22;28351;51.480;5.706;2023-08-21T06:49:55;20.60;99.90
42715;DHT22;28351;51.480;5.706;2023-08-21T06:52:21;20.60;99.90
42715;DHT22;28351;51.480;5.706;2023-08-21T06:54:46;20.50;99.90
42715;DHT22;28351;51.480;5.706;2023-08-21T06:57:12;20.50;99.90
42715;DHT22;28351;51.480;5.706;2023-08-21T06:59:38;20.50;99.90
42715;DHT22;28351;51.480;5.706;2023-08-21T07:02:03;20.60;99.90
42715;DHT22;28351;51.480;5.706;2023-08-21T07:04:29;20.70;99.90
42715;DHT22;28351;51.480;5.706;2023-08-21T07:06:55;20.70;99.90
42715;DHT22;28351;51.480;5.706;2023-08-21T07:09:20;20.80;99.90
42715;DHT22;28351;51.480;5.706;2023-08-21T07:11:46;20.90;99.90
42715;DHT22;28351;51.480;5.706;2023-08-21T07:14:12;20.90;99.90
42715;DHT22;28351;51.480;5.706;2023-08-21T07:16:40;20.90;99.90
42715;DHT22;28351;51.480;5.706;2023-08-21T07:19:06;21.00;99.90
42715;DHT22;28351;51.480;5.706;2023-08-21T07:21:32;21.10;99.90
42715;DHT22;28351;51.480;5.706;2023-08-21T07:24:00;21.20;99.90
42715;DHT22;28351;51.480;5.706;2023-08-21T07:26:26;21.30;99.90
42715;DHT22;28351;51.480;5.706;2023-08-21T07:28:51;21.40;99.90
42715;DHT22;28351;51.480;5.706;2023-08-21T07:31:18;21.60;99.90
42715;DHT22;28351;51.480;5.706;2023-08-21T07:33:44;21.60;99.90
42715;DHT22;28351;51.480;5.706;2023-08-21T07:36:09;21.70;99.90
42715;DHT22;28351;51.480;5.706;2023-08-21T07:38:40;21.60;99.90
42715;DHT22;28351;51.480;5.706;2023-08-21T07:41:10;21.60;99.90
42715;DHT22;28351;51.480;5.706;2023-08-21T07:43:37;21.50;99.90
42715;DHT22;28351;51.480;5.706;2023-08-21T07:46:04;21.50;99.90
42715;DHT22;28351;51.480;5.706;2023-08-21T07:48:30;21.50;99.90
42715;DHT22;28351;51.480;5.706;2023-08-21T07:50:56;21.60;99.90
42715;DHT22;28351;51.480;5.706;2023-08-21T07:53:22;21.60;99.90
42715;DHT22;28351;51.480;5.706;2023-08-21T07:55:48;21.60;99.90
42715;DHT22;28351;51.480;5.706;2023-08-21T07:58:13;21.70;99.90
42715;DHT22;28351;51.480;5.706;2023-08-21T08:00:39;21.60;99.90
42715;DHT22;28351;51.480;5.706;2023-08-21T08:03:05;21.70;99.90
42715;DHT22;28351;51.480;5.706;2023-08-21T08:05:37;21.80;99.90
42715;DHT22;28351;51.480;5.706;2023-08-21T08:08:03;21.90;99.90
42715;DHT22;28351;51.480;5.706;2023-08-21T08:10:29;22.00;99.90
42715;DHT22;28351;51.480;5.706;2023-08-21T08:12:54;22.00;99.90
42715;DHT22;28351;51.480;5.706;2023-08-21T08:15:21;22.10;99.90
42715;DHT22;28351;51.480;5.706;2023-08-21T08:17:46;22.10;99.90
42715;DHT22;28351;51.480;5.706;2023-08-21T08:20:13;22.10;99.90
42715;DHT22;28351;51.480;5.706;2023-08-21T08:22:39;22.20;99.90
42715;DHT22;28351;51.480;5.706;2023-08-21T08:25:05;22.20;99.90
42715;DHT22;28351;51.480;5.706;2023-08-21T08:27:34;22.30;99.90
42715;DHT22;28351;51.480;5.706;2023-08-21T08:30:00;22.30;99.90
42715;DHT22;28351;51.480;5.706;2023-08-21T08:32:26;22.50;99.90
42715;DHT22;28351;51.480;5.706;2023-08-21T08:34:52;22.60;99.90
42715;DHT22;28351;51.480;5.706;2023-08-21T08:37:19;22.90;99.90
42715;DHT22;28351;51.480;5.706;2023-08-21T08:39:48;23.10;99.90
42715;DHT22;28351;51.480;5.706;2023-08-21T08:42:15;23.40;99.90
42715;DHT22;28351;51.480;5.706;2023-08-21T08:44:42;23.60;99.80
42715;DHT22;28351;51.480;5.706;2023-08-21T08:47:09;23.90;99.50
42715;DHT22;28351;51.480;5.706;2023-08-21T08:49:35;24.00;99.60
42715;DHT22;28351;51.480;5.706;2023-08-21T08:52:02;24.00;99.40
42715;DHT22;28351;51.480;5.706;2023-08-21T08:54:29;23.90;99.30
42715;DHT22;28351;51.480;5.706;2023-08-21T08:56:54;23.90;99.10
42715;DHT22;28351;51.480;5.706;2023-08-21T08:59:20;23.90;99.80
42715;DHT22;28351;51.480;5.706;2023-08-21T09:01:46;23.90;99.90
42715;DHT22;28351;51.480;5.706;2023-08-21T09:04:12;24.00;99.90
42715;DHT22;28351;51.480;5.706;2023-08-21T09:06:38;24.20;99.50
42715;DHT22;28351;51.480;5.706;2023-08-21T09:09:04;24.30;99.50
42715;DHT22;28351;51.480;5.706;2023-08-21T09:11:31;24.40;99.70
42715;DHT22;28351;51.480;5.706;2023-08-21T09:13:58;24.50;99.90
42715;DHT22;28351;51.480;5.706;2023-08-21T09:16:25;24.50;99.70
42715;DHT22;28351;51.480;5.706;2023-08-21T09:19:00;24.50;99.10
42715;DHT22;28351;51.480;5.706;2023-08-21T09:21:26;24.50;99.00
42715;DHT22;28351;51.480;5.706;2023-08-21T09:24:01;24.40;99.60
42715;DHT22;28351;51.480;5.706;2023-08-21T09:26:33;24.40;99.60
42715;DHT22;28351;51.480;5.706;2023-08-21T09:28:59;24.50;99.60
42715;DHT22;28351;51.480;5.706;2023-08-21T09:31:32;24.60;99.90
42715;DHT22;28351;51.480;5.706;2023-08-21T09:33:59;24.80;99.60
42715;DHT22;28351;51.480;5.706;2023-08-21T09:36:26;25.00;98.60
42715;DHT22;28351;51.480;5.706;2023-08-21T09:38:52;25.00;98.90
42715;DHT22;28351;51.480;5.706;2023-08-21T09:41:22;25.10;98.80
42715;DHT22;28351;51.480;5.706;2023-08-21T09:43:48;25.30;98.70
42715;DHT22;28351;51.480;5.706;2023-08-21T09:46:15;25.50;98.60
42715;DHT22;28351;51.480;5.706;2023-08-21T09:48:45;25.60;99.10
42715;DHT22;28351;51.480;5.706;2023-08-21T09:51:11;25.60;98.50
42715;DHT22;28351;51.480;5.706;2023-08-21T09:53:37;25.80;97.60
42715;DHT22;28351;51.480;5.706;2023-08-21T09:56:05;25.90;97.70
42715;DHT22;28351;51.480;5.706;2023-08-21T09:58:31;26.00;97.10
42715;DHT22;28351;51.480;5.706;2023-08-21T10:00:58;25.90;97.30
42715;DHT22;28351;51.480;5.706;2023-08-21T10:03:25;26.00;95.90
42715;DHT22;28351;51.480;5.706;2023-08-21T10:05:51;26.10;96.60
42715;DHT22;28351;51.480;5.706;2023-08-21T10:08:24;26.10;96.00
42715;DHT22;28351;51.480;5.706;2023-08-21T10:10:50;26.00;95.70
42715;DHT22;28351;51.480;5.706;2023-08-21T10:13:16;26.20;95.80
42715;DHT22;28351;51.480;5.706;2023-08-21T10:15:43;26.50;95.60
42715;DHT22;28351;51.480;5.706;2023-08-21T10:18:32;27.00;95.60
42715;DHT22;28351;51.480;5.706;2023-08-21T10:21:19;27.50;95.30
42715;DHT22;28351;51.480;5.706;2023-08-21T10:23:54;27.70;94.60
42715;DHT22;28351;51.480;5.706;2023-08-21T10:26:21;27.60;93.60
42715;DHT22;28351;51.480;5.706;2023-08-21T10:28:52;27.20;94.00
42715;DHT22;28351;51.480;5.706;2023-08-21T10:31:32;27.00;95.10
42715;DHT22;28351;51.480;5.706;2023-08-21T10:34:00;27.20;94.30
42715;DHT22;28351;51.480;5.706;2023-08-21T10:39:04;27.20;94.10
42715;DHT22;28351;51.480;5.706;2023-08-21T10:41:30;26.90;94.10
42715;DHT22;28351;51.480;5.706;2023-08-21T10:43:55;26.40;94.80
42715;DHT22;28351;51.480;5.706;2023-08-21T10:46:21;26.50;95.60
42715;DHT22;28351;51.480;5.706;2023-08-21T10:48:47;26.80;95.30
42715;DHT22;28351;51.480;5.706;2023-08-21T10:51:12;27.00;94.00
42715;DHT22;28351;51.480;5.706;2023-08-21T10:53:38;27.10;95.00
42715;DHT22;28351;51.480;5.706;2023-08-21T10:56:07;27.50;94.50
42715;DHT22;28351;51.480;5.706;2023-08-21T10:58:41;27.70;94.40
42715;DHT22;28351;51.480;5.706;2023-08-21T11:01:07;27.70;93.70
42715;DHT22;28351;51.480;5.706;2023-08-21T11:03:32;27.90;93.10
42715;DHT22;28351;51.480;5.706;2023-08-21T11:06:06;28.30;92.00
42715;DHT22;28351;51.480;5.706;2023-08-21T11:08:33;28.30;92.60
42715;DHT22;28351;51.480;5.706;2023-08-21T11:10:59;28.50;91.80
42715;DHT22;28351;51.480;5.706;2023-08-21T11:13:26;28.80;92.30
42715;DHT22;28351;51.480;5.706;2023-08-21T11:15:59;29.30;92.00
42715;DHT22;28351;51.480;5.706;2023-08-21T11:18:38;29.80;91.60
42715;DHT22;28351;51.480;5.706;2023-08-21T11:21:11;30.10;91.50
42715;DHT22;28351;51.480;5.706;2023-08-21T11:23:39;30.70;91.40
42715;DHT22;28351;51.480;5.706;2023-08-21T11:26:06;31.50;90.90
42715;DHT22;28351;51.480;5.706;2023-08-21T11:28:32;31.50;89.40
42715;DHT22;28351;51.480;5.706;2023-08-21T11:30:58;32.50;89.50
42715;DHT22;28351;51.480;5.706;2023-08-21T11:33:26;33.30;87.50
42715;DHT22;28351;51.480;5.706;2023-08-21T11:35:52;33.40;87.60
42715;DHT22;28351;51.480;5.706;2023-08-21T11:38:23;33.60;86.70
42715;DHT22;28351;51.480;5.706;2023-08-21T11:41:01;33.70;85.60
42715;DHT22;28351;51.480;5.706;2023-08-21T11:43:38;33.90;85.90
42715;DHT22;28351;51.480;5.706;2023-08-21T11:46:05;34.30;84.90
42715;DHT22;28351;51.480;5.706;2023-08-21T11:48:31;35.30;85.00
42715;DHT22;28351;51.480;5.706;2023-08-21T11:50:57;36.10;84.70
42715;DHT22;28351;51.480;5.706;2023-08-21T11:55:59;31.50;85.50
42715;DHT22;28351;51.480;5.706;2023-08-21T11:58:28;29.90;88.40
42715;DHT22;28351;51.480;5.706;2023-08-21T12:00:54;28.90;90.10
42715;DHT22;28351;51.480;5.706;2023-08-21T12:03:19;30.40;90.20
42715;DHT22;28351;51.480;5.706;2023-08-21T12:05:45;32.50;88.10
42715;DHT22;28351;51.480;5.706;2023-08-21T12:08:11;33.70;83.70
42715;DHT22;28351;51.480;5.706;2023-08-21T12:10:36;33.60;82.80
42715;DHT22;28351;51.480;5.706;2023-08-21T12:13:02;31.90;84.10
42715;DHT22;28351;51.480;5.706;2023-08-21T12:15:28;31.80;88.00
42715;DHT22;28351;51.480;5.706;2023-08-21T12:17:53;33.30;84.80
42715;DHT22;28351;51.480;5.706;2023-08-21T12:20:20;31.60;86.20
42715;DHT22;28351;51.480;5.706;2023-08-21T12:22:45;31.10;88.40
42715;DHT22;28351;51.480;5.706;2023-08-21T12:25:12;33.60;85.40
42715;DHT22;28351;51.480;5.706;2023-08-21T12:27:38;34.30;81.10
42715;DHT22;28351;51.480;5.706;2023-08-21T12:30:05;35.30;83.40
42715;DHT22;28351;51.480;5.706;2023-08-21T12:32:31;35.60;80.90
42715;DHT22;28351;51.480;5.706;2023-08-21T12:34:57;34.30;83.30
42715;DHT22;28351;51.480;5.706;2023-08-21T12:37:22;33.20;84.30
42715;DHT22;28351;51.480;5.706;2023-08-21T12:39:48;31.40;85.10
42715;DHT22;28351;51.480;5.706;2023-08-21T12:42:14;30.30;88.00
42715;DHT22;28351;51.480;5.706;2023-08-21T12:44:39;30.80;87.30
42715;DHT22;28351;51.480;5.706;2023-08-21T12:47:05;30.70;86.10
42715;DHT22;28351;51.480;5.706;2023-08-21T12:49:31;29.90;87.60
42715;DHT22;28351;51.480;5.706;2023-08-21T12:51:57;29.10;88.90
42715;DHT22;28351;51.480;5.706;2023-08-21T12:54:22;29.90;90.30
42715;DHT22;28351;51.480;5.706;2023-08-21T12:56:48;31.60;86.50
42715;DHT22;28351;51.480;5.706;2023-08-21T12:59:14;30.90;87.10
42715;DHT22;28351;51.480;5.706;2023-08-21T13:01:39;30.00;89.30
42715;DHT22;28351;51.480;5.706;2023-08-21T13:04:05;29.40;90.20
42715;DHT22;28351;51.480;5.706;2023-08-21T13:06:31;31.40;88.60
42715;DHT22;28351;51.480;5.706;2023-08-21T13:08:57;33.20;86.50
42715;DHT22;28351;51.480;5.706;2023-08-21T13:11:22;35.10;85.60
42715;DHT22;28351;51.480;5.706;2023-08-21T13:13:48;35.40;82.20
42715;DHT22;28351;51.480;5.706;2023-08-21T13:16:14;35.20;81.60
42715;DHT22;28351;51.480;5.706;2023-08-21T13:18:40;33.70;82.50
42715;DHT22;28351;51.480;5.706;2023-08-21T13:21:05;33.30;84.90
42715;DHT22;28351;51.480;5.706;2023-08-21T13:23:31;32.00;85.50
42715;DHT22;28351;51.480;5.706;2023-08-21T13:25:59;32.50;86.20
42715;DHT22;28351;51.480;5.706;2023-08-21T13:28:25;32.60;85.70
42715;DHT22;28351;51.480;5.706;2023-08-21T13:30:50;31.30;86.90
42715;DHT22;28351;51.480;5.706;2023-08-21T13:33:16;30.50;89.10
42715;DHT22;28351;51.480;5.706;2023-08-21T13:35:45;29.60;90.40
42715;DHT22;28351;51.480;5.706;2023-08-21T13:38:12;29.20;90.50
42715;DHT22;28351;51.480;5.706;2023-08-21T13:40:38;29.10;92.20
42715;DHT22;28351;51.480;5.706;2023-08-21T13:43:05;30.30;91.70
42715;DHT22;28351;51.480;5.706;2023-08-21T13:45:32;31.40;90.70
42715;DHT22;28351;51.480;5.706;2023-08-21T13:47:58;31.30;90.50
42715;DHT22;28351;51.480;5.706;2023-08-21T13:50:23;32.40;90.50
42715;DHT22;28351;51.480;5.706;2023-08-21T13:52:49;34.30;85.90
42715;DHT22;28351;51.480;5.706;2023-08-21T13:55:16;35.70;83.50
42715;DHT22;28351;51.480;5.706;2023-08-21T13:57:41;36.60;79.70
42715;DHT22;28351;51.480;5.706;2023-08-21T14:00:09;36.90;80.90
42715;DHT22;28351;51.480;5.706;2023-08-21T14:02:39;37.40;81.10
42715;DHT22;28351;51.480;5.706;2023-08-21T14:05:06;37.70;79.90
42715;DHT22;28351;51.480;5.706;2023-08-21T14:07:33;38.10;79.90
42715;DHT22;28351;51.480;5.706;2023-08-21T14:09:59;37.80;79.50
42715;DHT22;28351;51.480;5.706;2023-08-21T14:12:25;37.60;79.70
42715;DHT22;28351;51.480;5.706;2023-08-21T14:14:50;37.50;77.50
42715;DHT22;28351;51.480;5.706;2023-08-21T14:17:16;36.80;76.70
42715;DHT22;28351;51.480;5.706;2023-08-21T14:19:42;36.60;78.60
42715;DHT22;28351;51.480;5.706;2023-08-21T14:22:08;37.10;78.40
42715;DHT22;28351;51.480;5.706;2023-08-21T14:24:33;36.80;78.20
42715;DHT22;28351;51.480;5.706;2023-08-21T14:26:59;36.00;77.20
42715;DHT22;28351;51.480;5.706;2023-08-21T14:29:25;36.00;78.00
42715;DHT22;28351;51.480;5.706;2023-08-21T14:31:50;36.90;77.40
42715;DHT22;28351;51.480;5.706;2023-08-21T14:34:19;36.50;77.00
42715;DHT22;28351;51.480;5.706;2023-08-21T14:36:45;35.30;77.30
42715;DHT22;28351;51.480;5.706;2023-08-21T14:39:11;34.00;78.90
42715;DHT22;28351;51.480;5.706;2023-08-21T14:41:38;34.60;79.30
42715;DHT22;28351;51.480;5.706;2023-08-21T14:44:04;36.00;79.30
42715;DHT22;28351;51.480;5.706;2023-08-21T14:46:31;35.50;75.70
42715;DHT22;28351;51.480;5.706;2023-08-21T14:48:56;35.70;77.00
42715;DHT22;28351;51.480;5.706;2023-08-21T14:51:22;36.80;77.90
42715;DHT22;28351;51.480;5.706;2023-08-21T14:53:47;37.10;76.70
42715;DHT22;28351;51.480;5.706;2023-08-21T14:56:13;36.00;75.70
42715;DHT22;28351;51.480;5.706;2023-08-21T14:58:39;35.20;77.70
42715;DHT22;28351;51.480;5.706;2023-08-21T15:01:08;35.90;79.20
42715;DHT22;28351;51.480;5.706;2023-08-21T15:03:35;36.30;76.10
42715;DHT22;28351;51.480;5.706;2023-08-21T15:06:01;36.90;78.00
42715;DHT22;28351;51.480;5.706;2023-08-21T15:08:27;37.50;75.60
42715;DHT22;28351;51.480;5.706;2023-08-21T15:10:53;36.80;75.20
42715;DHT22;28351;51.480;5.706;2023-08-21T15:13:19;37.00;74.60
42715;DHT22;28351;51.480;5.706;2023-08-21T15:15:44;37.40;75.40
42715;DHT22;28351;51.480;5.706;2023-08-21T15:18:10;37.40;73.70
42715;DHT22;28351;51.480;5.706;2023-08-21T15:20:36;36.80;75.00
42715;DHT22;28351;51.480;5.706;2023-08-21T15:23:02;36.70;74.80
42715;DHT22;28351;51.480;5.706;2023-08-21T15:25:27;36.90;74.00
42715;DHT22;28351;51.480;5.706;2023-08-21T15:27:53;36.90;73.90
42715;DHT22;28351;51.480;5.706;2023-08-21T15:30:19;36.60;74.60